sensor_id;sensor_type;location;lat;lon;timestamp;P1;durP1;ratioP1;P2;durP2;ratioP2
64653;SDS011;51065;48.884;12.598;2022-07-29T00:01:33;7.00;;;3.75;;
64653;SDS011;51065;48.884;12.598;2022-07-29T00:03:59;7.47;;;3.40;;
64653;SDS011;51065;48.884;12.598;2022-07-29T00:06:24;6.93;;;3.72;;
64653;SDS011;51065;48.884;12.598;2022-07-29T00:08:50;7.25;;;3.50;;
64653;SDS011;51065;48.884;12.598;2022-07-29T00:11:18;7.93;;;3.75;;
64653;SDS011;51065;48.884;12.598;2022-07-29T00:13:44;6.35;;;3.72;;
64653;SDS011;51065;48.884;12.598;2022-07-29T00:16:09;7.97;;;3.80;;
64653;SDS011;51065;48.884;12.598;2022-07-29T00:18:35;12.40;;;3.65;;
64653;SDS011;51065;48.884;12.598;2022-07-29T00:21:00;8.23;;;3.85;;
64653;SDS011;51065;48.884;12.598;2022-07-29T00:23:26;7.53;;;3.90;;
64653;SDS011;51065;48.884;12.598;2022-07-29T00:25:51;10.40;;;4.10;;
64653;SDS011;51065;48.884;12.598;2022-07-29T00:28:17;6.43;;;3.58;;
64653;SDS011;51065;48.884;12.598;2022-07-29T00:30:42;7.93;;;4.00;;
64653;SDS011;51065;48.884;12.598;2022-07-29T00:33:08;7.03;;;3.75;;
64653;SDS011;51065;48.884;12.598;2022-07-29T00:35:34;7.40;;;3.45;;
64653;SDS011;51065;48.884;12.598;2022-07-29T00:38:10;8.13;;;3.55;;
64653;SDS011;51065;48.884;12.598;2022-07-29T00:43:06;9.40;;;4.20;;
64653;SDS011;51065;48.884;12.598;2022-07-29T00:45:31;8.48;;;3.88;;
64653;SDS011;51065;48.884;12.598;2022-07-29T00:47:57;11.40;;;4.70;;
64653;SDS011;51065;48.884;12.598;2022-07-29T00:50:23;7.75;;;4.38;;
64653;SDS011;51065;48.884;12.598;2022-07-29T00:52:49;7.22;;;3.97;;
64653;SDS011;51065;48.884;12.598;2022-07-29T00:55:16;9.13;;;4.57;;
64653;SDS011;51065;48.884;12.598;2022-07-29T00:57:42;13.15;;;4.82;;
64653;SDS011;51065;48.884;12.598;2022-07-29T01:00:10;9.40;;;4.65;;
64653;SDS011;51065;48.884;12.598;2022-07-29T01:02:38;8.93;;;4.55;;
64653;SDS011;51065;48.884;12.598;2022-07-29T01:05:04;8.65;;;4.10;;
64653;SDS011;51065;48.884;12.598;2022-07-29T01:07:31;9.57;;;4.03;;
64653;SDS011;51065;48.884;12.598;2022-07-29T01:10:03;12.48;;;4.88;;
64653;SDS011;51065;48.884;12.598;2022-07-29T01:12:30;9.30;;;4.30;;
64653;SDS011;51065;48.884;12.598;2022-07-29T01:14:58;9.45;;;4.25;;
64653;SDS011;51065;48.884;12.598;2022-07-29T01:25:05;9.65;;;4.53;;
64653;SDS011;51065;48.884;12.598;2022-07-29T01:28:00;8.73;;;4.05;;
64653;SDS011;51065;48.884;12.598;2022-07-29T01:30:42;10.05;;;4.05;;
64653;SDS011;51065;48.884;12.598;2022-07-29T01:33:11;8.25;;;4.10;;
64653;SDS011;51065;48.884;12.598;2022-07-29T01:36:01;10.02;;;4.47;;
64653;SDS011;51065;48.884;12.598;2022-07-29T01:38:35;7.47;;;4.10;;
64653;SDS011;51065;48.884;12.598;2022-07-29T01:41:08;9.52;;;4.35;;
64653;SDS011;51065;48.884;12.598;2022-07-29T01:43:39;7.57;;;3.90;;
64653;SDS011;51065;48.884;12.598;2022-07-29T01:46:20;11.07;;;4.22;;
64653;SDS011;51065;48.884;12.598;2022-07-29T01:49:00;8.77;;;3.97;;
64653;SDS011;51065;48.884;12.598;2022-07-29T01:54:19;8.20;;;3.92;;
64653;SDS011;51065;48.884;12.598;2022-07-29T01:57:08;8.60;;;3.97;;
64653;SDS011;51065;48.884;12.598;2022-07-29T01:59:35;9.50;;;3.90;;
64653;SDS011;51065;48.884;12.598;2022-07-29T02:02:03;8.07;;;4.20;;
64653;SDS011;51065;48.884;12.598;2022-07-29T02:04:31;10.50;;;4.47;;
64653;SDS011;51065;48.884;12.598;2022-07-29T02:07:00;7.97;;;4.03;;
64653;SDS011;51065;48.884;12.598;2022-07-29T02:09:30;7.15;;;4.25;;
64653;SDS011;51065;48.884;12.598;2022-07-29T02:11:58;7.82;;;4.22;;
64653;SDS011;51065;48.884;12.598;2022-07-29T02:14:26;8.50;;;3.97;;
64653;SDS011;51065;48.884;12.598;2022-07-29T02:16:55;8.73;;;4.65;;
64653;SDS011;51065;48.884;12.598;2022-07-29T02:19:23;8.90;;;4.55;;
64653;SDS011;51065;48.884;12.598;2022-07-29T02:21:51;11.27;;;5.40;;
64653;SDS011;51065;48.884;12.598;2022-07-29T02:24:18;9.50;;;4.40;;
64653;SDS011;51065;48.884;12.598;2022-07-29T02:26:45;9.57;;;4.20;;
64653;SDS011;51065;48.884;12.598;2022-07-29T02:29:14;9.70;;;4.63;;
64653;SDS011;51065;48.884;12.598;2022-07-29T02:31:41;10.70;;;5.18;;
64653;SDS011;51065;48.884;12.598;2022-07-29T02:34:12;10.52;;;4.45;;
64653;SDS011;51065;48.884;12.598;2022-07-29T02:36:39;9.43;;;4.55;;
64653;SDS011;51065;48.884;12.598;2022-07-29T02:39:06;7.70;;;4.15;;
64653;SDS011;51065;48.884;12.598;2022-07-29T02:41:35;9.95;;;4.22;;
64653;SDS011;51065;48.884;12.598;2022-07-29T02:44:10;8.38;;;4.10;;
64653;SDS011;51065;48.884;12.598;2022-07-29T02:46:41;9.57;;;4.10;;
64653;SDS011;51065;48.884;12.598;2022-07-29T02:52:08;9.38;;;4.20;;
64653;SDS011;51065;48.884;12.598;2022-07-29T02:54:58;9.13;;;4.20;;
64653;SDS011;51065;48.884;12.598;2022-07-29T03:00:08;7.63;;;4.38;;
64653;SDS011;51065;48.884;12.598;2022-07-29T03:02:39;9.55;;;4.35;;
64653;SDS011;51065;48.884;12.598;2022-07-29T03:05:09;8.43;;;4.00;;
64653;SDS011;51065;48.884;12.598;2022-07-29T03:07:40;11.40;;;4.20;;
64653;SDS011;51065;48.884;12.598;2022-07-29T03:10:10;9.77;;;4.22;;
64653;SDS011;51065;48.884;12.598;2022-07-29T03:12:37;8.25;;;4.47;;
64653;SDS011;51065;48.884;12.598;2022-07-29T03:15:03;11.65;;;4.50;;
64653;SDS011;51065;48.884;12.598;2022-07-29T03:17:29;9.88;;;4.38;;
64653;SDS011;51065;48.884;12.598;2022-07-29T03:19:56;10.23;;;4.65;;
64653;SDS011;51065;48.884;12.598;2022-07-29T03:22:23;9.40;;;4.35;;
64653;SDS011;51065;48.884;12.598;2022-07-29T03:24:49;9.95;;;4.50;;
64653;SDS011;51065;48.884;12.598;2022-07-29T03:27:15;9.48;;;4.60;;
64653;SDS011;51065;48.884;12.598;2022-07-29T03:29:41;9.45;;;4.43;;
64653;SDS011;51065;48.884;12.598;2022-07-29T03:32:06;9.98;;;4.90;;
64653;SDS011;51065;48.884;12.598;2022-07-29T03:34:33;10.98;;;4.85;;
64653;SDS011;51065;48.884;12.598;2022-07-29T03:36:58;13.80;;;5.85;;
64653;SDS011;51065;48.884;12.598;2022-07-29T03:39:24;14.13;;;5.63;;
64653;SDS011;51065;48.884;12.598;2022-07-29T03:41:55;9.93;;;5.18;;
64653;SDS011;51065;48.884;12.598;2022-07-29T03:44:22;11.65;;;5.35;;
64653;SDS011;51065;48.884;12.598;2022-07-29T03:46:50;11.23;;;5.38;;
64653;SDS011;51065;48.884;12.598;2022-07-29T03:49:51;12.43;;;5.80;;
64653;SDS011;51065;48.884;12.598;2022-07-29T03:52:18;15.90;;;6.05;;
64653;SDS011;51065;48.884;12.598;2022-07-29T03:54:45;14.02;;;6.10;;
64653;SDS011;51065;48.884;12.598;2022-07-29T03:57:11;11.38;;;5.80;;
64653;SDS011;51065;48.884;12.598;2022-07-29T03:59:37;12.18;;;5.47;;
64653;SDS011;51065;48.884;12.598;2022-07-29T04:02:04;12.15;;;5.30;;
64653;SDS011;51065;48.884;12.598;2022-07-29T04:04:36;13.40;;;5.85;;
64653;SDS011;51065;48.884;12.598;2022-07-29T04:07:02;13.45;;;5.70;;
64653;SDS011;51065;48.884;12.598;2022-07-29T04:09:28;14.95;;;5.93;;
64653;SDS011;51065;48.884;12.598;2022-07-29T04:11:54;13.20;;;5.22;;
64653;SDS011;51065;48.884;12.598;2022-07-29T04:14:20;11.65;;;5.05;;
64653;SDS011;51065;48.884;12.598;2022-07-29T04:16:46;10.50;;;5.32;;
64653;SDS011;51065;48.884;12.598;2022-07-29T04:19:12;10.43;;;4.88;;
64653;SDS011;51065;48.884;12.598;2022-07-29T04:21:38;10.20;;;4.97;;
64653;SDS011;51065;48.884;12.598;2022-07-29T04:24:04;10.38;;;5.00;;
64653;SDS011;51065;48.884;12.598;2022-07-29T04:26:30;11.35;;;4.88;;
64653;SDS011;51065;48.884;12.598;2022-07-29T04:28:55;10.43;;;4.53;;
64653;SDS011;51065;48.884;12.598;2022-07-29T04:31:21;10.20;;;4.53;;
64653;SDS011;51065;48.884;12.598;2022-07-29T04:33:46;12.82;;;4.53;;
64653;SDS011;51065;48.884;12.598;2022-07-29T04:36:12;9.23;;;4.35;;
64653;SDS011;51065;48.884;12.598;2022-07-29T04:38:38;13.05;;;5.30;;
64653;SDS011;51065;48.884;12.598;2022-07-29T04:41:03;10.68;;;5.30;;
64653;SDS011;51065;48.884;12.598;2022-07-29T04:43:31;11.68;;;5.57;;
64653;SDS011;51065;48.884;12.598;2022-07-29T04:45:58;12.48;;;5.60;;
64653;SDS011;51065;48.884;12.598;2022-07-29T04:48:23;10.23;;;4.95;;
64653;SDS011;51065;48.884;12.598;2022-07-29T04:50:49;11.32;;;5.78;;
64653;SDS011;51065;48.884;12.598;2022-07-29T04:53:14;13.82;;;5.85;;
64653;SDS011;51065;48.884;12.598;2022-07-29T04:55:40;16.65;;;6.45;;
64653;SDS011;51065;48.884;12.598;2022-07-29T04:58:05;13.95;;;6.70;;
64653;SDS011;51065;48.884;12.598;2022-07-29T05:00:32;12.25;;;6.07;;
64653;SDS011;51065;48.884;12.598;2022-07-29T05:02:58;15.77;;;6.80;;
64653;SDS011;51065;48.884;12.598;2022-07-29T05:05:23;14.15;;;6.40;;
64653;SDS011;51065;48.884;12.598;2022-07-29T05:07:49;15.40;;;6.63;;
64653;SDS011;51065;48.884;12.598;2022-07-29T05:10:14;12.98;;;6.30;;
64653;SDS011;51065;48.884;12.598;2022-07-29T05:12:40;12.77;;;6.20;;
64653;SDS011;51065;48.884;12.598;2022-07-29T05:15:05;16.60;;;6.97;;
64653;SDS011;51065;48.884;12.598;2022-07-29T05:17:31;14.05;;;5.90;;
64653;SDS011;51065;48.884;12.598;2022-07-29T05:19:57;16.20;;;7.07;;
64653;SDS011;51065;48.884;12.598;2022-07-29T05:22:22;15.32;;;7.10;;
64653;SDS011;51065;48.884;12.598;2022-07-29T05:24:48;17.52;;;6.90;;
64653;SDS011;51065;48.884;12.598;2022-07-29T05:27:13;19.95;;;6.65;;
64653;SDS011;51065;48.884;12.598;2022-07-29T05:29:39;15.32;;;6.32;;
64653;SDS011;51065;48.884;12.598;2022-07-29T05:32:05;19.42;;;6.57;;
64653;SDS011;51065;48.884;12.598;2022-07-29T05:34:31;15.80;;;6.78;;
64653;SDS011;51065;48.884;12.598;2022-07-29T05:36:57;14.27;;;6.82;;
64653;SDS011;51065;48.884;12.598;2022-07-29T05:39:22;16.50;;;6.90;;
64653;SDS011;51065;48.884;12.598;2022-07-29T05:41:48;12.52;;;5.93;;
64653;SDS011;51065;48.884;12.598;2022-07-29T05:44:14;13.40;;;6.07;;
64653;SDS011;51065;48.884;12.598;2022-07-29T05:46:39;13.13;;;5.28;;
64653;SDS011;51065;48.884;12.598;2022-07-29T05:49:05;14.63;;;6.53;;
64653;SDS011;51065;48.884;12.598;2022-07-29T05:51:31;14.02;;;6.50;;
64653;SDS011;51065;48.884;12.598;2022-07-29T05:53:57;13.35;;;6.53;;
64653;SDS011;51065;48.884;12.598;2022-07-29T05:56:23;11.40;;;5.65;;
64653;SDS011;51065;48.884;12.598;2022-07-29T05:58:49;12.18;;;5.65;;
64653;SDS011;51065;48.884;12.598;2022-07-29T06:01:18;11.18;;;5.80;;
64653;SDS011;51065;48.884;12.598;2022-07-29T06:03:43;12.48;;;5.80;;
64653;SDS011;51065;48.884;12.598;2022-07-29T06:06:09;11.20;;;5.70;;
64653;SDS011;51065;48.884;12.598;2022-07-29T06:08:35;15.63;;;5.88;;
64653;SDS011;51065;48.884;12.598;2022-07-29T06:11:02;17.65;;;6.18;;
64653;SDS011;51065;48.884;12.598;2022-07-29T06:13:28;14.25;;;6.50;;
64653;SDS011;51065;48.884;12.598;2022-07-29T06:15:54;11.80;;;6.40;;
64653;SDS011;51065;48.884;12.598;2022-07-29T06:18:19;11.55;;;5.93;;
64653;SDS011;51065;48.884;12.598;2022-07-29T06:20:48;16.23;;;6.00;;
64653;SDS011;51065;48.884;12.598;2022-07-29T06:23:18;12.05;;;6.38;;
64653;SDS011;51065;48.884;12.598;2022-07-29T06:25:44;11.75;;;5.50;;
64653;SDS011;51065;48.884;12.598;2022-07-29T06:28:10;12.05;;;6.30;;
64653;SDS011;51065;48.884;12.598;2022-07-29T06:30:35;16.70;;;5.78;;
64653;SDS011;51065;48.884;12.598;2022-07-29T06:33:01;10.95;;;5.10;;
64653;SDS011;51065;48.884;12.598;2022-07-29T06:35:27;12.43;;;5.88;;
64653;SDS011;51065;48.884;12.598;2022-07-29T06:37:53;11.23;;;5.68;;
64653;SDS011;51065;48.884;12.598;2022-07-29T06:40:19;12.95;;;6.60;;
64653;SDS011;51065;48.884;12.598;2022-07-29T06:43:03;10.98;;;6.05;;
64653;SDS011;51065;48.884;12.598;2022-07-29T06:45:29;12.85;;;5.63;;
64653;SDS011;51065;48.884;12.598;2022-07-29T06:47:54;15.27;;;6.45;;
64653;SDS011;51065;48.884;12.598;2022-07-29T06:50:20;12.65;;;5.38;;
64653;SDS011;51065;48.884;12.598;2022-07-29T06:52:46;12.77;;;6.35;;
64653;SDS011;51065;48.884;12.598;2022-07-29T06:55:12;13.80;;;6.60;;
64653;SDS011;51065;48.884;12.598;2022-07-29T06:57:38;18.23;;;6.90;;
64653;SDS011;51065;48.884;12.598;2022-07-29T07:00:04;11.40;;;5.55;;
64653;SDS011;51065;48.884;12.598;2022-07-29T07:02:30;13.88;;;6.05;;
64653;SDS011;51065;48.884;12.598;2022-07-29T07:04:56;10.98;;;5.53;;
64653;SDS011;51065;48.884;12.598;2022-07-29T07:07:21;11.70;;;5.57;;
64653;SDS011;51065;48.884;12.598;2022-07-29T07:09:47;12.70;;;5.32;;
64653;SDS011;51065;48.884;12.598;2022-07-29T07:12:12;12.73;;;5.57;;
64653;SDS011;51065;48.884;12.598;2022-07-29T07:14:38;8.93;;;5.22;;
64653;SDS011;51065;48.884;12.598;2022-07-29T07:17:05;11.93;;;5.30;;
64653;SDS011;51065;48.884;12.598;2022-07-29T07:19:31;9.77;;;5.60;;
64653;SDS011;51065;48.884;12.598;2022-07-29T07:21:57;9.75;;;5.20;;
64653;SDS011;51065;48.884;12.598;2022-07-29T07:24:23;10.55;;;5.13;;
64653;SDS011;51065;48.884;12.598;2022-07-29T07:26:48;12.32;;;5.18;;
64653;SDS011;51065;48.884;12.598;2022-07-29T07:29:14;11.30;;;5.60;;
64653;SDS011;51065;48.884;12.598;2022-07-29T07:31:39;11.30;;;5.32;;
64653;SDS011;51065;48.884;12.598;2022-07-29T07:34:05;11.23;;;4.97;;
64653;SDS011;51065;48.884;12.598;2022-07-29T07:36:31;10.73;;;5.20;;
64653;SDS011;51065;48.884;12.598;2022-07-29T07:38:56;12.32;;;5.53;;
64653;SDS011;51065;48.884;12.598;2022-07-29T07:41:22;10.77;;;5.03;;
64653;SDS011;51065;48.884;12.598;2022-07-29T07:43:47;12.82;;;4.90;;
64653;SDS011;51065;48.884;12.598;2022-07-29T07:46:13;10.38;;;4.95;;
64653;SDS011;51065;48.884;12.598;2022-07-29T07:48:39;7.88;;;4.75;;
64653;SDS011;51065;48.884;12.598;2022-07-29T07:51:05;11.30;;;5.28;;
64653;SDS011;51065;48.884;12.598;2022-07-29T07:53:32;9.00;;;4.97;;
64653;SDS011;51065;48.884;12.598;2022-07-29T07:55:58;9.73;;;4.65;;
64653;SDS011;51065;48.884;12.598;2022-07-29T07:58:24;9.95;;;5.43;;
64653;SDS011;51065;48.884;12.598;2022-07-29T08:00:50;12.18;;;5.05;;
64653;SDS011;51065;48.884;12.598;2022-07-29T08:03:15;9.60;;;4.90;;
64653;SDS011;51065;48.884;12.598;2022-07-29T08:05:41;9.07;;;4.28;;
64653;SDS011;51065;48.884;12.598;2022-07-29T08:08:06;12.93;;;4.68;;
64653;SDS011;51065;48.884;12.598;2022-07-29T08:10:32;10.10;;;4.60;;
64653;SDS011;51065;48.884;12.598;2022-07-29T08:13:16;12.07;;;4.80;;
64653;SDS011;51065;48.884;12.598;2022-07-29T08:15:42;12.15;;;5.43;;
64653;SDS011;51065;48.884;12.598;2022-07-29T08:18:09;8.18;;;4.40;;
64653;SDS011;51065;48.884;12.598;2022-07-29T08:20:36;10.00;;;4.85;;
64653;SDS011;51065;48.884;12.598;2022-07-29T08:23:03;9.02;;;4.68;;
64653;SDS011;51065;48.884;12.598;2022-07-29T08:25:30;9.77;;;5.35;;
64653;SDS011;51065;48.884;12.598;2022-07-29T08:27:56;13.77;;;5.43;;
64653;SDS011;51065;48.884;12.598;2022-07-29T08:30:22;12.90;;;5.43;;
64653;SDS011;51065;48.884;12.598;2022-07-29T08:32:48;10.57;;;5.10;;
64653;SDS011;51065;48.884;12.598;2022-07-29T08:35:15;6.65;;;3.63;;
64653;SDS011;51065;48.884;12.598;2022-07-29T08:37:40;11.70;;;4.70;;
64653;SDS011;51065;48.884;12.598;2022-07-29T08:40:06;9.95;;;4.90;;
64653;SDS011;51065;48.884;12.598;2022-07-29T08:42:32;8.80;;;4.75;;
64653;SDS011;51065;48.884;12.598;2022-07-29T08:44:58;12.18;;;5.00;;
64653;SDS011;51065;48.884;12.598;2022-07-29T08:47:24;10.50;;;4.75;;
64653;SDS011;51065;48.884;12.598;2022-07-29T08:49:51;7.55;;;4.57;;
64653;SDS011;51065;48.884;12.598;2022-07-29T08:52:27;9.07;;;4.45;;
64653;SDS011;51065;48.884;12.598;2022-07-29T08:55:04;8.32;;;4.40;;
64653;SDS011;51065;48.884;12.598;2022-07-29T08:57:31;9.77;;;5.10;;
64653;SDS011;51065;48.884;12.598;2022-07-29T08:59:59;11.82;;;4.53;;
64653;SDS011;51065;48.884;12.598;2022-07-29T09:02:25;9.05;;;4.30;;
64653;SDS011;51065;48.884;12.598;2022-07-29T09:04:54;7.82;;;4.43;;
64653;SDS011;51065;48.884;12.598;2022-07-29T09:07:22;9.55;;;4.18;;
64653;SDS011;51065;48.884;12.598;2022-07-29T09:09:48;8.73;;;4.00;;
64653;SDS011;51065;48.884;12.598;2022-07-29T09:12:14;8.23;;;4.28;;
64653;SDS011;51065;48.884;12.598;2022-07-29T09:14:43;11.70;;;4.28;;
64653;SDS011;51065;48.884;12.598;2022-07-29T09:17:08;8.88;;;4.40;;
64653;SDS011;51065;48.884;12.598;2022-07-29T09:19:34;14.00;;;4.43;;
64653;SDS011;51065;48.884;12.598;2022-07-29T09:22:02;12.20;;;4.68;;
64653;SDS011;51065;48.884;12.598;2022-07-29T09:24:43;10.93;;;3.78;;
64653;SDS011;51065;48.884;12.598;2022-07-29T09:32:56;6.68;;;3.80;;
64653;SDS011;51065;48.884;12.598;2022-07-29T09:35:24;7.95;;;3.95;;
64653;SDS011;51065;48.884;12.598;2022-07-29T09:37:54;5.95;;;3.60;;
64653;SDS011;51065;48.884;12.598;2022-07-29T09:40:24;6.65;;;3.88;;
64653;SDS011;51065;48.884;12.598;2022-07-29T09:42:51;7.13;;;3.63;;
64653;SDS011;51065;48.884;12.598;2022-07-29T09:45:27;9.50;;;3.10;;
64653;SDS011;51065;48.884;12.598;2022-07-29T09:47:57;5.90;;;3.72;;
64653;SDS011;51065;48.884;12.598;2022-07-29T09:50:35;7.35;;;3.53;;
64653;SDS011;51065;48.884;12.598;2022-07-29T09:53:01;5.35;;;3.30;;
64653;SDS011;51065;48.884;12.598;2022-07-29T09:55:27;9.75;;;3.95;;
64653;SDS011;51065;48.884;12.598;2022-07-29T09:57:53;6.75;;;3.25;;
64653;SDS011;51065;48.884;12.598;2022-07-29T10:00:19;8.55;;;3.55;;
64653;SDS011;51065;48.884;12.598;2022-07-29T10:02:48;5.35;;;2.95;;
64653;SDS011;51065;48.884;12.598;2022-07-29T10:05:20;5.47;;;3.20;;
64653;SDS011;51065;48.884;12.598;2022-07-29T10:07:52;7.30;;;3.40;;
64653;SDS011;51065;48.884;12.598;2022-07-29T10:10:19;4.88;;;3.25;;
64653;SDS011;51065;48.884;12.598;2022-07-29T10:12:49;6.72;;;2.85;;
64653;SDS011;51065;48.884;12.598;2022-07-29T10:15:16;4.82;;;2.50;;
64653;SDS011;51065;48.884;12.598;2022-07-29T10:17:42;4.03;;;2.67;;
64653;SDS011;51065;48.884;12.598;2022-07-29T10:20:09;7.40;;;3.00;;
64653;SDS011;51065;48.884;12.598;2022-07-29T10:22:35;5.13;;;2.90;;
64653;SDS011;51065;48.884;12.598;2022-07-29T10:25:01;6.55;;;3.30;;
64653;SDS011;51065;48.884;12.598;2022-07-29T10:27:27;4.70;;;2.88;;
64653;SDS011;51065;48.884;12.598;2022-07-29T10:29:53;6.38;;;3.08;;
64653;SDS011;51065;48.884;12.598;2022-07-29T10:32:22;5.55;;;2.90;;
64653;SDS011;51065;48.884;12.598;2022-07-29T10:35:21;5.10;;;3.10;;
64653;SDS011;51065;48.884;12.598;2022-07-29T10:38:15;8.75;;;3.28;;
64653;SDS011;51065;48.884;12.598;2022-07-29T10:43:53;4.50;;;2.95;;
64653;SDS011;51065;48.884;12.598;2022-07-29T10:46:22;13.10;;;3.00;;
64653;SDS011;51065;48.884;12.598;2022-07-29T10:52:07;5.63;;;3.05;;
64653;SDS011;51065;48.884;12.598;2022-07-29T11:05:04;8.82;;;3.13;;
64653;SDS011;51065;48.884;12.598;2022-07-29T11:07:31;8.65;;;3.40;;
64653;SDS011;51065;48.884;12.598;2022-07-29T11:15:11;5.70;;;3.10;;
64653;SDS011;51065;48.884;12.598;2022-07-29T11:18:07;4.88;;;3.00;;
64653;SDS011;51065;48.884;12.598;2022-07-29T11:20:45;7.32;;;3.25;;
64653;SDS011;51065;48.884;12.598;2022-07-29T11:23:29;7.30;;;3.03;;
64653;SDS011;51065;48.884;12.598;2022-07-29T11:28:39;5.93;;;3.13;;
64653;SDS011;51065;48.884;12.598;2022-07-29T11:31:19;11.70;;;3.53;;
64653;SDS011;51065;48.884;12.598;2022-07-29T11:39:32;5.00;;;3.05;;
64653;SDS011;51065;48.884;12.598;2022-07-29T11:45:01;4.78;;;2.65;;
64653;SDS011;51065;48.884;12.598;2022-07-29T11:47:51;8.15;;;3.15;;
64653;SDS011;51065;48.884;12.598;2022-07-29T11:50:26;4.72;;;2.80;;
64653;SDS011;51065;48.884;12.598;2022-07-29T11:52:56;4.57;;;2.90;;
64653;SDS011;51065;48.884;12.598;2022-07-29T11:55:22;5.53;;;2.72;;
64653;SDS011;51065;48.884;12.598;2022-07-29T11:57:50;6.63;;;2.85;;
64653;SDS011;51065;48.884;12.598;2022-07-29T12:00:25;3.67;;;2.45;;
64653;SDS011;51065;48.884;12.598;2022-07-29T12:03:02;6.32;;;3.03;;
64653;SDS011;51065;48.884;12.598;2022-07-29T12:05:32;5.13;;;2.88;;
64653;SDS011;51065;48.884;12.598;2022-07-29T12:08:07;5.25;;;2.40;;
64653;SDS011;51065;48.884;12.598;2022-07-29T12:10:43;5.53;;;2.60;;
64653;SDS011;51065;48.884;12.598;2022-07-29T12:13:11;6.32;;;2.70;;
64653;SDS011;51065;48.884;12.598;2022-07-29T12:15:37;3.85;;;2.50;;
64653;SDS011;51065;48.884;12.598;2022-07-29T12:18:10;5.53;;;2.50;;
64653;SDS011;51065;48.884;12.598;2022-07-29T12:20:41;7.38;;;2.70;;
64653;SDS011;51065;48.884;12.598;2022-07-29T12:23:07;3.50;;;2.33;;
64653;SDS011;51065;48.884;12.598;2022-07-29T12:25:36;3.47;;;2.42;;
64653;SDS011;51065;48.884;12.598;2022-07-29T12:28:08;5.40;;;2.53;;
64653;SDS011;51065;48.884;12.598;2022-07-29T12:30:40;4.85;;;2.65;;
64653;SDS011;51065;48.884;12.598;2022-07-29T12:33:16;7.70;;;2.70;;
64653;SDS011;51065;48.884;12.598;2022-07-29T12:35:46;5.28;;;2.50;;
64653;SDS011;51065;48.884;12.598;2022-07-29T12:38:14;5.82;;;2.55;;
64653;SDS011;51065;48.884;12.598;2022-07-29T12:40:40;4.30;;;2.55;;
64653;SDS011;51065;48.884;12.598;2022-07-29T12:45:37;3.60;;;2.35;;
64653;SDS011;51065;48.884;12.598;2022-07-29T12:48:04;3.22;;;2.20;;
64653;SDS011;51065;48.884;12.598;2022-07-29T12:50:33;5.20;;;2.55;;
64653;SDS011;51065;48.884;12.598;2022-07-29T12:53:12;4.35;;;2.20;;
64653;SDS011;51065;48.884;12.598;2022-07-29T12:55:45;5.45;;;2.33;;
64653;SDS011;51065;48.884;12.598;2022-07-29T12:58:25;5.63;;;2.22;;
64653;SDS011;51065;48.884;12.598;2022-07-29T13:01:03;4.60;;;2.50;;
64653;SDS011;51065;48.884;12.598;2022-07-29T13:03:53;7.00;;;2.65;;
64653;SDS011;51065;48.884;12.598;2022-07-29T13:06:34;6.93;;;2.55;;
64653;SDS011;51065;48.884;12.598;2022-07-29T13:11:44;6.25;;;2.50;;
64653;SDS011;51065;48.884;12.598;2022-07-29T13:14:12;4.63;;;2.40;;
64653;SDS011;51065;48.884;12.598;2022-07-29T13:21:59;5.53;;;2.42;;
64653;SDS011;51065;48.884;12.598;2022-07-29T13:24:24;5.32;;;2.45;;
64653;SDS011;51065;48.884;12.598;2022-07-29T13:26:50;3.58;;;2.15;;
64653;SDS011;51065;48.884;12.598;2022-07-29T13:29:16;5.90;;;2.25;;
64653;SDS011;51065;48.884;12.598;2022-07-29T13:31:42;4.88;;;2.20;;
64653;SDS011;51065;48.884;12.598;2022-07-29T13:34:08;6.85;;;2.30;;
64653;SDS011;51065;48.884;12.598;2022-07-29T13:36:33;5.18;;;2.10;;
64653;SDS011;51065;48.884;12.598;2022-07-29T13:38:59;8.07;;;2.42;;
64653;SDS011;51065;48.884;12.598;2022-07-29T13:41:26;7.32;;;2.33;;
64653;SDS011;51065;48.884;12.598;2022-07-29T13:43:51;4.32;;;2.42;;
64653;SDS011;51065;48.884;12.598;2022-07-29T13:46:17;3.25;;;2.10;;
64653;SDS011;51065;48.884;12.598;2022-07-29T13:48:43;3.22;;;2.20;;
64653;SDS011;51065;48.884;12.598;2022-07-29T13:53:38;4.57;;;2.42;;
64653;SDS011;51065;48.884;12.598;2022-07-29T13:56:03;3.03;;;1.98;;
64653;SDS011;51065;48.884;12.598;2022-07-29T13:58:31;5.18;;;2.08;;
64653;SDS011;51065;48.884;12.598;2022-07-29T14:00:57;4.43;;;2.28;;
64653;SDS011;51065;48.884;12.598;2022-07-29T14:03:23;4.50;;;2.05;;
64653;SDS011;51065;48.884;12.598;2022-07-29T14:05:49;4.70;;;2.20;;
64653;SDS011;51065;48.884;12.598;2022-07-29T14:08:15;3.53;;;2.13;;
64653;SDS011;51065;48.884;12.598;2022-07-29T14:10:40;3.30;;;2.17;;
64653;SDS011;51065;48.884;12.598;2022-07-29T14:13:06;4.93;;;2.00;;
64653;SDS011;51065;48.884;12.598;2022-07-29T14:15:31;5.30;;;2.40;;
64653;SDS011;51065;48.884;12.598;2022-07-29T14:17:57;4.50;;;1.63;;
64653;SDS011;51065;48.884;12.598;2022-07-29T14:20:22;5.90;;;2.03;;
64653;SDS011;51065;48.884;12.598;2022-07-29T14:22:48;5.18;;;2.25;;
64653;SDS011;51065;48.884;12.598;2022-07-29T14:25:13;4.28;;;1.98;;
64653;SDS011;51065;48.884;12.598;2022-07-29T14:27:39;3.13;;;2.00;;
64653;SDS011;51065;48.884;12.598;2022-07-29T14:30:05;5.25;;;2.20;;
64653;SDS011;51065;48.884;12.598;2022-07-29T14:32:31;9.50;;;2.40;;
64653;SDS011;51065;48.884;12.598;2022-07-29T14:34:57;3.75;;;1.90;;
64653;SDS011;51065;48.884;12.598;2022-07-29T14:37:22;3.15;;;1.83;;
64653;SDS011;51065;48.884;12.598;2022-07-29T14:39:48;4.40;;;2.25;;
64653;SDS011;51065;48.884;12.598;2022-07-29T14:42:13;4.05;;;2.25;;
64653;SDS011;51065;48.884;12.598;2022-07-29T14:44:39;3.75;;;1.92;;
64653;SDS011;51065;48.884;12.598;2022-07-29T14:47:06;3.47;;;2.00;;
64653;SDS011;51065;48.884;12.598;2022-07-29T14:49:31;2.88;;;2.03;;
64653;SDS011;51065;48.884;12.598;2022-07-29T14:51:57;3.28;;;2.05;;
64653;SDS011;51065;48.884;12.598;2022-07-29T14:54:22;2.47;;;1.67;;
64653;SDS011;51065;48.884;12.598;2022-07-29T14:56:48;5.43;;;2.00;;
64653;SDS011;51065;48.884;12.598;2022-07-29T14:59:15;4.85;;;2.17;;
64653;SDS011;51065;48.884;12.598;2022-07-29T15:01:41;4.13;;;1.95;;
64653;SDS011;51065;48.884;12.598;2022-07-29T15:04:07;5.13;;;2.22;;
64653;SDS011;51065;48.884;12.598;2022-07-29T15:06:33;4.22;;;2.10;;
64653;SDS011;51065;48.884;12.598;2022-07-29T15:08:59;4.88;;;2.08;;
64653;SDS011;51065;48.884;12.598;2022-07-29T15:11:24;3.53;;;1.80;;
64653;SDS011;51065;48.884;12.598;2022-07-29T15:13:50;4.55;;;2.28;;
64653;SDS011;51065;48.884;12.598;2022-07-29T15:16:15;10.63;;;2.40;;
64653;SDS011;51065;48.884;12.598;2022-07-29T15:18:41;2.97;;;2.00;;
64653;SDS011;51065;48.884;12.598;2022-07-29T15:21:07;5.20;;;2.30;;
64653;SDS011;51065;48.884;12.598;2022-07-29T15:23:32;8.73;;;2.60;;
64653;SDS011;51065;48.884;12.598;2022-07-29T15:26:01;6.35;;;2.28;;
64653;SDS011;51065;48.884;12.598;2022-07-29T15:28:27;7.50;;;2.10;;
64653;SDS011;51065;48.884;12.598;2022-07-29T15:30:52;5.32;;;2.03;;
64653;SDS011;51065;48.884;12.598;2022-07-29T15:33:19;4.28;;;2.08;;
64653;SDS011;51065;48.884;12.598;2022-07-29T15:35:44;4.00;;;2.10;;
64653;SDS011;51065;48.884;12.598;2022-07-29T15:38:10;5.05;;;2.30;;
64653;SDS011;51065;48.884;12.598;2022-07-29T15:40:36;6.25;;;2.00;;
64653;SDS011;51065;48.884;12.598;2022-07-29T15:43:05;8.87;;;2.17;;
64653;SDS011;51065;48.884;12.598;2022-07-29T15:45:40;11.98;;;2.40;;